Aérodrome :
LOGIN :

S'inscrire | Disclaimer

   EN    FR    IT 

 










Légende :    VFR   VFR Marginal   IFR   IFR Intensif   IFR Très Intensif
Visi : 
Plafond : 
>= 8 km
>= 3000ft
5 à 8 km
1000 à 3000 ft
1500m à 5 km
500 à 1000 ft
800 à 1500m
200 à 500 ft
< 800m
< 200 ft
Symboles :   Orages  Brouillard  Fortes neiges  Fortes précipitations  Vent > 20 kt
SIGMETs :   Divers  Orages  Givrage  Turbulence  Onde Orograph.  Cendres Volcan.







- Altitude de l'aérodrome : 407 ft


EGDM - MoD Boscombe Down Amesbury

DERNIER METAR :
  • 261150Z 21017KT 9999 BKN010 SCT020 BKN060 20/18 Q1006 GRN TEMPO 3500 RADZ BKN006 YLO1

METARs EXPIRÉS :
  • 261103Z 20014KT 9999 BKN008 BKN020 BKN045 19/17 Q1006 GRN NOSIG
  • 261050Z 18009KT 9999 BKN006 OVC045 18/17 Q1006 YLO1 BECMG BKN010 GRN
  • 260950Z 19005KT 9999 -RA FEW004 SCT006 BKN046 17/17 Q1007 YLO1 TEMPO 5000 YLO1
  • 260939Z 20007KT 9999 -RA FEW004 BKN005 OVC040 17/17 Q1007 YLO1 TEMPO 5000 YLO1

TAF TAF EGDM
Valide du 26 à 12h jusqu'au 26 à 18h UTC


261035Z 2612/2618 21012KT 9999 BKN012
PROB40
TEMPO 2612/2613 FEW012 SCT025
TEMPO 2613/2615 3500 -RADZ SCT005
BECMG 2615/2617 SCT025
Pas de NOTAMs connus pour ce terrain.



MET'MAP, la Météo Aéronautique d'un coup d'oeil ! - Copyright ORBIFLY Décembre 2007 - Disclaimer

ORBIFLY MET'MAP TEAM :

Programmation & Développement : Alexandra Zaïnal
Conception & Développement : Baudouin d'Aumeries
Co-Programmation & Développement : Marc-Olivier Méhu
Soutien technique & logistique : Manuel Goepfert

Contact : metmap@orbifly.com




SOURCES & CREDITS :

   NOAA